Time;durP1;ratioP1;P1;durP2;ratioP2;P2;SDS_P1;SDS_P2;PMS_P1;PMS_P2;Temp;Humidity;BMP_temperature;BMP_pressure;BME280_temperature;BME280_humidity;BME280_pressure;Samples;Min_cycle;Max_cycle;Signal;HPM_P1;HPM_P2
2022/07/09 00:02:17;;;;;;;11.52;6.13;;;;;;;;;;4946898;28;20213;-79
2022/07/09 00:04:42;;;;;;;13.27;6.28;;;;;;;;;;4933012;28;20043;-78
2022/07/09 00:07:07;;;;;;;11.30;5.78;;;;;;;;;;4932077;28;20033;-79
2022/07/09 00:09:33;;;;;;;10.30;5.65;;;;;;;;;;4945336;28;20145;-77
2022/07/09 00:11:58;;;;;;;12.02;6.35;;;;;;;;;;4929396;28;20764;-76
2022/07/09 00:14:23;;;;;;;11.38;6.47;;;;;;;;;;4928026;28;20066;-79
2022/07/09 00:16:49;;;;;;;11.32;6.97;;;;;;;;;;4929933;28;21833;-77
2022/07/09 00:19:14;;;;;;;10.55;7.35;;;;;;;;;;4929553;28;20089;-78
2022/07/09 00:21:40;;;;;;;12.57;6.40;;;;;;;;;;4932539;28;20089;-77
2022/07/09 00:24:06;;;;;;;10.55;5.88;;;;;;;;;;4929735;28;20865;-77
2022/07/09 00:26:31;;;;;;;9.73;5.57;;;;;;;;;;4929264;28;22096;-77
2022/07/09 00:28:58;;;;;;;9.82;4.90;;;;;;;;;;4944199;28;20385;-77
2022/07/09 00:31:26;;;;;;;15.15;5.63;;;;;;;;;;4930441;28;20105;-77
2022/07/09 00:33:51;;;;;;;13.57;6.00;;;;;;;;;;4930128;28;20531;-78
2022/07/09 00:36:16;;;;;;;9.63;5.35;;;;;;;;;;4944189;28;20156;-78
2022/07/09 00:38:42;;;;;;;11.98;5.60;;;;;;;;;;4928992;28;20081;-77
2022/07/09 00:41:07;;;;;;;13.48;5.68;;;;;;;;;;4930449;28;20205;-77
2022/07/09 00:43:35;;;;;;;12.05;6.50;;;;;;;;;;4928696;28;20882;-77
2022/07/09 00:46:01;;;;;;;12.13;5.80;;;;;;;;;;4927240;28;20038;-78
2022/07/09 00:48:26;;;;;;;8.25;5.18;;;;;;;;;;4928946;28;20050;-77
2022/07/09 00:50:53;;;;;;;9.35;5.05;;;;;;;;;;4930710;28;20128;-77
2022/07/09 00:53:21;;;;;;;12.10;5.30;;;;;;;;;;4929346;28;20031;-77
2022/07/09 00:55:47;;;;;;;7.05;4.78;;;;;;;;;;4932042;28;20860;-77
2022/07/09 00:58:14;;;;;;;13.70;5.47;;;;;;;;;;4930402;28;20043;-76
2022/07/09 01:00:40;;;;;;;9.30;4.80;;;;;;;;;;4929236;28;20093;-77
2022/07/09 01:03:06;;;;;;;8.48;4.43;;;;;;;;;;4944892;28;20582;-77
2022/07/09 01:05:35;;;;;;;9.05;4.38;;;;;;;;;;4925460;28;20042;-77
2022/07/09 01:08:02;;;;;;;8.02;4.57;;;;;;;;;;4929170;28;20043;-76
2022/07/09 01:10:27;;;;;;;8.65;4.40;;;;;;;;;;4929989;28;20046;-77
2022/07/09 01:12:55;;;;;;;9.55;4.97;;;;;;;;;;4934524;28;20047;-79
2022/07/09 01:15:20;;;;;;;8.85;4.53;;;;;;;;;;4931793;28;20039;-78
2022/07/09 01:17:45;;;;;;;10.43;4.72;;;;;;;;;;4930782;28;20042;-78
2022/07/09 01:20:11;;;;;;;6.97;4.18;;;;;;;;;;4945772;28;20448;-78
2022/07/09 01:22:36;;;;;;;6.47;4.35;;;;;;;;;;4929351;28;20041;-77
2022/07/09 01:25:04;;;;;;;11.55;4.28;;;;;;;;;;4946399;28;20058;-77
2022/07/09 01:27:30;;;;;;;7.30;4.07;;;;;;;;;;4930892;28;20043;-78
2022/07/09 01:29:55;;;;;;;8.65;4.55;;;;;;;;;;4938472;28;20602;-78
2022/07/09 01:32:23;;;;;;;9.02;3.97;;;;;;;;;;4931001;28;20295;-76
2022/07/09 01:34:48;;;;;;;7.80;3.40;;;;;;;;;;4931126;28;20042;-74
2022/07/09 01:37:13;;;;;;;6.45;3.78;;;;;;;;;;4931711;28;20027;-77
2022/07/09 01:39:49;;;;;;;6.63;3.75;;;;;;;;;;4939640;28;20042;-77
2022/07/09 01:42:21;;;;;;;6.30;3.50;;;;;;;;;;4948424;28;20031;-78
2022/07/09 01:44:46;;;;;;;;;;;;;;;;;;4934341;28;20610;-77
2022/07/09 01:47:14;;;;;;;7.45;3.50;;;;;;;;;;4934657;28;20005;-77
2022/07/09 01:49:39;;;;;;;6.40;3.38;;;;;;;;;;4950107;28;20269;-78
2022/07/09 01:52:05;;;;;;;6.45;3.45;;;;;;;;;;4948347;28;20041;-77
2022/07/09 01:54:30;;;;;;;5.88;3.50;;;;;;;;;;4934251;28;20069;-77
2022/07/09 01:56:55;;;;;;;6.75;3.00;;;;;;;;;;4938629;28;20061;-78
2022/07/09 01:59:21;;;;;;;7.85;3.17;;;;;;;;;;4936685;28;20031;-78
2022/07/09 02:01:47;;;;;;;6.70;3.10;;;;;;;;;;4939405;28;20061;-77
2022/07/09 02:04:12;;;;;;;7.78;3.15;;;;;;;;;;4934141;28;20043;-77
2022/07/09 02:06:37;;;;;;;8.23;3.40;;;;;;;;;;4937528;28;20048;-77
2022/07/09 02:09:03;;;;;;;6.70;3.25;;;;;;;;;;4948514;28;20038;-76
2022/07/09 02:11:30;;;;;;;6.28;2.75;;;;;;;;;;4934659;28;20059;-77
2022/07/09 02:13:56;;;;;;;6.75;2.90;;;;;;;;;;4934407;28;20283;-75
2022/07/09 02:16:21;;;;;;;9.90;2.70;;;;;;;;;;4948266;28;20073;-76
2022/07/09 02:18:46;;;;;;;5.50;2.70;;;;;;;;;;4932295;28;20097;-76
2022/07/09 02:21:12;;;;;;;6.65;3.00;;;;;;;;;;4934052;28;20035;-77
2022/07/09 02:23:38;;;;;;;6.10;2.95;;;;;;;;;;4947892;28;20750;-76
2022/07/09 02:26:03;;;;;;;8.10;3.65;;;;;;;;;;4934212;28;20081;-77
2022/07/09 02:28:28;;;;;;;7.88;3.15;;;;;;;;;;4932970;28;20063;-77
2022/07/09 02:30:54;;;;;;;7.50;2.50;;;;;;;;;;4933444;28;20070;-77
2022/07/09 02:33:22;;;;;;;6.00;2.53;;;;;;;;;;4938708;28;20081;-76
2022/07/09 02:35:47;;;;;;;9.20;2.65;;;;;;;;;;4933497;28;20045;-76
2022/07/09 02:38:13;;;;;;;6.72;2.72;;;;;;;;;;4931167;28;20050;-75
2022/07/09 02:40:39;;;;;;;6.78;2.70;;;;;;;;;;4933910;28;20035;-76
2022/07/09 02:43:04;;;;;;;6.00;2.50;;;;;;;;;;4934000;28;20039;-75
2022/07/09 02:45:29;;;;;;;8.23;2.83;;;;;;;;;;4947502;28;20062;-75
2022/07/09 02:47:55;;;;;;;8.52;2.85;;;;;;;;;;4932054;28;20134;-76
2022/07/09 02:50:20;;;;;;;3.92;2.20;;;;;;;;;;4946598;28;20150;-77
2022/07/09 02:52:48;;;;;;;7.65;2.60;;;;;;;;;;4947608;28;20035;-74
2022/07/09 02:55:14;;;;;;;5.18;2.80;;;;;;;;;;4933094;28;20039;-76
2022/07/09 02:57:39;;;;;;;4.63;2.40;;;;;;;;;;4932532;28;20050;-76
2022/07/09 03:00:05;;;;;;;8.70;2.42;;;;;;;;;;4946913;28;20129;-75
2022/07/09 03:02:30;;;;;;;4.70;2.40;;;;;;;;;;4932454;28;20038;-76
2022/07/09 03:04:58;;;;;;;6.82;2.42;;;;;;;;;;4931051;28;20148;-76
2022/07/09 03:07:24;;;;;;;5.90;2.50;;;;;;;;;;4932638;28;20047;-76
2022/07/09 03:09:49;;;;;;;8.95;2.88;;;;;;;;;;4933702;28;20795;-76
2022/07/09 03:12:15;;;;;;;7.90;2.75;;;;;;;;;;4935800;28;20181;-75
2022/07/09 03:14:40;;;;;;;4.45;2.40;;;;;;;;;;4947600;28;20152;-75
2022/07/09 03:17:06;;;;;;;8.70;2.40;;;;;;;;;;4931886;28;20035;-75
2022/07/09 03:19:33;;;;;;;6.55;2.63;;;;;;;;;;4931324;28;20061;-75
2022/07/09 03:22:01;;;;;;;6.53;2.95;;;;;;;;;;4933295;28;20045;-75
2022/07/09 03:24:26;;;;;;;10.38;2.50;;;;;;;;;;4932942;28;20926;-76
2022/07/09 03:26:51;;;;;;;6.82;2.40;;;;;;;;;;4930909;28;20037;-76
2022/07/09 03:29:22;;;;;;;8.18;2.75;;;;;;;;;;4930176;28;20197;-76
2022/07/09 03:31:47;;;;;;;6.13;3.03;;;;;;;;;;4934702;28;20038;-76
2022/07/09 03:34:15;;;;;;;6.80;2.80;;;;;;;;;;4945995;28;20591;-76
2022/07/09 03:36:41;;;;;;;6.60;2.58;;;;;;;;;;4932971;28;20054;-77
2022/07/09 03:39:06;;;;;;;5.25;3.25;;;;;;;;;;4946433;28;20074;-74
2022/07/09 03:41:33;;;;;;;7.43;3.40;;;;;;;;;;4932591;28;20125;-73
2022/07/09 03:43:59;;;;;;;7.22;3.60;;;;;;;;;;4947056;28;20078;-74
2022/07/09 03:46:26;;;;;;;7.35;3.78;;;;;;;;;;4936893;28;20108;-75
2022/07/09 03:48:52;;;;;;;7.15;3.58;;;;;;;;;;4932065;28;20030;-75
2022/07/09 03:51:19;;;;;;;9.38;3.40;;;;;;;;;;4946080;28;20045;-75
2022/07/09 03:53:45;;;;;;;7.75;3.45;;;;;;;;;;4932183;28;20073;-75
2022/07/09 03:56:10;;;;;;;7.28;3.78;;;;;;;;;;4933198;28;20565;-76
2022/07/09 03:58:37;;;;;;;9.02;3.80;;;;;;;;;;4937015;28;20055;-76
2022/07/09 04:01:03;;;;;;;5.63;3.42;;;;;;;;;;4932080;28;20867;-75
2022/07/09 04:03:30;;;;;;;6.20;3.83;;;;;;;;;;4931981;28;20030;-75
2022/07/09 04:05:58;;;;;;;7.53;3.72;;;;;;;;;;4945272;28;20762;-75
2022/07/09 04:08:25;;;;;;;7.45;4.15;;;;;;;;;;4935432;28;20677;-74
2022/07/09 04:10:51;;;;;;;7.25;4.50;;;;;;;;;;4931862;28;20027;-74
2022/07/09 04:13:17;;;;;;;9.52;4.57;;;;;;;;;;4946760;28;20058;-76
2022/07/09 04:15:42;;;;;;;6.75;4.45;;;;;;;;;;4932123;28;20090;-75
2022/07/09 04:18:08;;;;;;;13.40;5.95;;;;;;;;;;4931691;28;20062;-76
2022/07/09 04:20:34;;;;;;;11.00;5.72;;;;;;;;;;4930333;28;20888;-77
2022/07/09 04:23:01;;;;;;;12.73;7.40;;;;;;;;;;4931136;28;20062;-76
2022/07/09 04:25:27;;;;;;;13.15;8.93;;;;;;;;;;4931666;28;20120;-76
2022/07/09 04:27:52;;;;;;;14.20;7.75;;;;;;;;;;4930444;28;20041;-76
2022/07/09 04:30:18;;;;;;;14.13;9.57;;;;;;;;;;4945185;28;20046;-74
2022/07/09 04:32:43;;;;;;;17.30;10.07;;;;;;;;;;4932804;28;20066;-75
2022/07/09 04:35:08;;;;;;;13.50;10.68;;;;;;;;;;4931551;28;22574;-74
2022/07/09 04:37:36;;;;;;;15.52;10.02;;;;;;;;;;4931498;28;20043;-74
2022/07/09 04:40:02;;;;;;;18.33;11.20;;;;;;;;;;4931827;28;20146;-74
2022/07/09 04:42:27;;;;;;;15.63;10.80;;;;;;;;;;4932124;28;20056;-75
2022/07/09 04:44:52;;;;;;;16.38;10.15;;;;;;;;;;4931239;28;20046;-75
2022/07/09 04:47:18;;;;;;;16.00;9.68;;;;;;;;;;4929883;28;20077;-75
2022/07/09 04:49:46;;;;;;;16.80;9.40;;;;;;;;;;4931331;28;20031;-76
2022/07/09 04:52:17;;;;;;;19.45;9.30;;;;;;;;;;4932732;28;20035;-78
2022/07/09 04:54:43;;;;;;;12.93;8.00;;;;;;;;;;4936316;28;20035;-76
2022/07/09 04:57:08;;;;;;;18.67;8.98;;;;;;;;;;4936058;28;20045;-76
2022/07/09 04:59:33;;;;;;;14.23;7.90;;;;;;;;;;4928912;28;20031;-74
2022/07/09 05:01:58;;;;;;;13.48;8.77;;;;;;;;;;4937581;28;20096;-75
2022/07/09 05:04:24;;;;;;;13.15;7.28;;;;;;;;;;4931168;28;20555;-77
2022/07/09 05:06:49;;;;;;;11.02;7.03;;;;;;;;;;4932113;28;20131;-75
2022/07/09 05:09:14;;;;;;;11.70;6.95;;;;;;;;;;4930805;28;20298;-75
2022/07/09 05:11:42;;;;;;;12.90;6.82;;;;;;;;;;4964942;28;20034;-73
2022/07/09 05:14:10;;;;;;;15.57;6.55;;;;;;;;;;4981717;28;20046;-73
2022/07/09 05:16:35;;;;;;;9.52;5.65;;;;;;;;;;4970511;28;20137;-72
2022/07/09 05:19:01;;;;;;;10.35;5.50;;;;;;;;;;4957722;28;20050;-72
2022/07/09 05:21:26;;;;;;;11.30;4.97;;;;;;;;;;4955153;28;20039;-74
2022/07/09 05:23:51;;;;;;;9.23;4.68;;;;;;;;;;4953796;28;20093;-71
2022/07/09 05:26:17;;;;;;;8.30;4.43;;;;;;;;;;4949528;28;20046;-74
2022/07/09 05:28:44;;;;;;;8.35;3.70;;;;;;;;;;4969810;28;20088;-72
2022/07/09 05:31:12;;;;;;;8.43;3.60;;;;;;;;;;4965783;28;20034;-69
2022/07/09 05:33:37;;;;;;;6.97;3.17;;;;;;;;;;4957984;28;20031;-73
2022/07/09 05:36:03;;;;;;;6.50;2.53;;;;;;;;;;4958330;28;20054;-72
2022/07/09 05:38:28;;;;;;;7.97;2.75;;;;;;;;;;4953253;28;20046;-72
2022/07/09 05:40:57;;;;;;;5.18;2.80;;;;;;;;;;4954774;28;20061;-71
2022/07/09 05:43:22;;;;;;;7.38;2.80;;;;;;;;;;4953094;28;20019;-72
2022/07/09 05:45:48;;;;;;;6.50;2.60;;;;;;;;;;4976422;28;20133;-72
2022/07/09 05:48:13;;;;;;;5.20;2.30;;;;;;;;;;4957612;28;20090;-69
2022/07/09 05:50:43;;;;;;;6.80;2.05;;;;;;;;;;4953523;28;20126;-76
2022/07/09 05:53:09;;;;;;;6.25;2.20;;;;;;;;;;4963212;28;20077;-73
2022/07/09 05:55:39;;;;;;;5.80;1.85;;;;;;;;;;4970368;28;20038;-74
2022/07/09 05:58:06;;;;;;;4.32;1.90;;;;;;;;;;4960447;28;20043;-75
2022/07/09 06:00:32;;;;;;;3.97;1.70;;;;;;;;;;4968441;28;20031;-74
2022/07/09 06:02:57;;;;;;;5.70;1.70;;;;;;;;;;4960537;28;20094;-72
2022/07/09 06:05:23;;;;;;;7.00;1.60;;;;;;;;;;4964246;28;20077;-71
2022/07/09 06:07:48;;;;;;;4.25;1.70;;;;;;;;;;4970797;28;20038;-73
2022/07/09 06:10:16;;;;;;;6.00;1.75;;;;;;;;;;4970864;28;20058;-71
2022/07/09 06:12:42;;;;;;;5.65;1.38;;;;;;;;;;4974648;28;20073;-73
2022/07/09 06:15:08;;;;;;;6.32;1.70;;;;;;;;;;4950670;28;20133;-71
2022/07/09 06:17:33;;;;;;;8.05;1.60;;;;;;;;;;4943292;28;20446;-69
2022/07/09 06:19:58;;;;;;;8.80;1.70;;;;;;;;;;4949184;28;20034;-70
2022/07/09 06:22:23;;;;;;;4.78;1.60;;;;;;;;;;4948286;28;20039;-71
2022/07/09 06:24:49;;;;;;;5.93;1.40;;;;;;;;;;4943040;28;20677;-70
2022/07/09 06:27:14;;;;;;;5.93;1.33;;;;;;;;;;4957530;28;20142;-70
2022/07/09 06:29:42;;;;;;;5.97;1.48;;;;;;;;;;4976010;28;20027;-70
2022/07/09 06:32:07;;;;;;;5.38;1.58;;;;;;;;;;4940970;28;20423;-69
2022/07/09 06:34:32;;;;;;;5.22;1.60;;;;;;;;;;4947264;28;20168;-71
2022/07/09 06:36:58;;;;;;;6.00;1.60;;;;;;;;;;4941079;28;20145;-70
2022/07/09 06:42:07;;;;;;;7.05;1.60;;;;;;;;;;4931723;28;20638;-71
2022/07/09 06:44:34;;;;;;;6.85;1.55;;;;;;;;;;4939459;28;20038;-70
2022/07/09 06:46:59;;;;;;;10.13;1.70;;;;;;;;;;4932648;28;21156;-70
2022/07/09 06:49:24;;;;;;;7.20;1.60;;;;;;;;;;4931385;28;20891;-70
2022/07/09 06:51:49;;;;;;;8.95;1.90;;;;;;;;;;4931234;28;20031;-69
2022/07/09 06:54:15;;;;;;;8.88;1.67;;;;;;;;;;4932064;28;20374;-68
2022/07/09 06:56:40;;;;;;;9.60;1.63;;;;;;;;;;4935717;28;20084;-70
2022/07/09 06:59:05;;;;;;;7.53;1.85;;;;;;;;;;4942539;28;20045;-70
2022/07/09 07:01:30;;;;;;;9.30;1.80;;;;;;;;;;4923042;28;20114;-69
2022/07/09 07:03:56;;;;;;;12.02;2.00;;;;;;;;;;4948808;28;20038;-69
2022/07/09 07:06:21;;;;;;;7.53;1.70;;;;;;;;;;4930665;28;20184;-69
2022/07/09 07:08:47;;;;;;;9.75;1.58;;;;;;;;;;4928860;28;20148;-69
2022/07/09 07:11:12;;;;;;;10.50;2.22;;;;;;;;;;4944141;28;20046;-69
2022/07/09 07:13:40;;;;;;;7.38;1.85;;;;;;;;;;4929384;28;20042;-70
2022/07/09 07:16:08;;;;;;;7.88;1.80;;;;;;;;;;4930563;28;20507;-68
2022/07/09 07:18:33;;;;;;;10.48;1.83;;;;;;;;;;4942507;28;20159;-69
2022/07/09 07:21:01;;;;;;;6.70;1.55;;;;;;;;;;4928489;28;20065;-71
2022/07/09 07:23:26;;;;;;;9.88;2.03;;;;;;;;;;4933460;28;20070;-70
2022/07/09 07:25:54;;;;;;;9.23;1.98;;;;;;;;;;4929353;28;20053;-69
2022/07/09 07:28:19;;;;;;;12.95;2.10;;;;;;;;;;4928127;28;20038;-69
2022/07/09 07:30:45;;;;;;;12.25;2.08;;;;;;;;;;4943408;28;22240;-70
2022/07/09 07:33:12;;;;;;;11.45;2.03;;;;;;;;;;4929252;28;20384;-70
2022/07/09 07:35:38;;;;;;;10.30;2.05;;;;;;;;;;4929181;28;20133;-72
2022/07/09 07:38:04;;;;;;;6.85;1.58;;;;;;;;;;4931400;28;21353;-65
2022/07/09 07:40:32;;;;;;;7.93;2.08;;;;;;;;;;4930349;28;20043;-70
2022/07/09 07:42:57;;;;;;;53.42;16.92;;;;;;;;;;4929396;28;20606;-70
2022/07/09 07:45:22;;;;;;;22.75;5.07;;;;;;;;;;4944897;28;20133;-70
2022/07/09 07:47:54;;;;;;;10.07;2.00;;;;;;;;;;4931049;28;20633;-68
2022/07/09 07:50:19;;;;;;;12.85;2.70;;;;;;;;;;4930604;28;20030;-70
2022/07/09 07:52:45;;;;;;;7.88;1.90;;;;;;;;;;4945572;28;20105;-70
2022/07/09 07:55:11;;;;;;;10.93;2.00;;;;;;;;;;4930746;28;20042;-69
2022/07/09 07:57:36;;;;;;;10.25;2.00;;;;;;;;;;4940059;28;20063;-68
2022/07/09 08:00:02;;;;;;;10.88;1.90;;;;;;;;;;4942733;28;20034;-69
2022/07/09 08:02:27;;;;;;;8.65;2.03;;;;;;;;;;4949953;28;20070;-73
2022/07/09 08:04:55;;;;;;;9.68;1.80;;;;;;;;;;4971374;28;20045;-76
2022/07/09 08:07:20;;;;;;;9.10;1.95;;;;;;;;;;4965779;28;20660;-73
2022/07/09 08:09:48;;;;;;;11.73;1.77;;;;;;;;;;4963115;28;20031;-73
2022/07/09 08:12:13;;;;;;;11.35;1.98;;;;;;;;;;4961490;28;21989;-74
2022/07/09 08:14:39;;;;;;;9.07;2.10;;;;;;;;;;4966543;28;20035;-73
2022/07/09 08:17:07;;;;;;;8.40;2.20;;;;;;;;;;4969695;28;20035;-77
2022/07/09 08:19:34;;;;;;;10.52;1.70;;;;;;;;;;4955242;28;20053;-73
2022/07/09 08:22:00;;;;;;;7.72;1.60;;;;;;;;;;4947911;28;20167;-71
2022/07/09 08:24:27;;;;;;;8.82;1.80;;;;;;;;;;4968585;28;20042;-75
2022/07/09 08:26:56;;;;;;;11.25;2.22;;;;;;;;;;4957003;28;20592;-74
2022/07/09 08:29:24;;;;;;;8.45;1.85;;;;;;;;;;4974250;28;20031;-74
2022/07/09 08:31:50;;;;;;;10.82;2.00;;;;;;;;;;4959533;28;20959;-75
2022/07/09 08:34:15;;;;;;;7.13;1.63;;;;;;;;;;4953738;28;20034;-72
2022/07/09 08:36:40;;;;;;;7.90;1.73;;;;;;;;;;4956528;28;20043;-72
2022/07/09 08:39:06;;;;;;;5.90;1.50;;;;;;;;;;4962623;28;20049;-73
2022/07/09 08:41:31;;;;;;;7.35;1.52;;;;;;;;;;4948071;28;20039;-72
2022/07/09 08:43:57;;;;;;;4.75;1.50;;;;;;;;;;4956066;28;20035;-75
2022/07/09 08:46:22;;;;;;;5.82;1.80;;;;;;;;;;4956035;28;20038;-73
2022/07/09 08:48:48;;;;;;;6.55;1.65;;;;;;;;;;4963850;28;20037;-72
2022/07/09 08:51:14;;;;;;;8.38;1.33;;;;;;;;;;4957812;28;20054;-75
2022/07/09 08:53:41;;;;;;;9.30;1.85;;;;;;;;;;4973706;28;20042;-74
2022/07/09 08:56:07;;;;;;;10.00;1.88;;;;;;;;;;4963988;28;20058;-74
2022/07/09 08:58:32;;;;;;;13.57;1.35;;;;;;;;;;4962616;28;22012;-72
2022/07/09 09:00:58;;;;;;;8.68;1.50;;;;;;;;;;4962379;28;20037;-70
2022/07/09 09:03:23;;;;;;;8.10;1.55;;;;;;;;;;4960637;28;20122;-69
2022/07/09 09:06:05;;;;;;;9.65;1.85;;;;;;;;;;4956850;28;21921;-73
2022/07/09 09:08:36;;;;;;;13.90;2.00;;;;;;;;;;4969486;28;20039;-73
2022/07/09 09:11:02;;;;;;;5.45;1.90;;;;;;;;;;4968586;28;20637;-72
2022/07/09 09:13:28;;;;;;;10.20;2.05;;;;;;;;;;4949554;28;20069;-70
2022/07/09 09:16:01;;;;;;;7.80;1.63;;;;;;;;;;4952766;28;20034;-75
2022/07/09 09:18:27;;;;;;;10.00;1.77;;;;;;;;;;4953338;28;20134;-73
2022/07/09 09:20:52;;;;;;;9.63;1.52;;;;;;;;;;4955912;28;20045;-72
2022/07/09 09:23:19;;;;;;;9.80;2.00;;;;;;;;;;4952044;28;20045;-73
2022/07/09 09:25:45;;;;;;;16.45;2.00;;;;;;;;;;4957374;28;20719;-74
2022/07/09 09:28:13;;;;;;;11.25;2.05;;;;;;;;;;4949761;28;20034;-72
2022/07/09 09:30:43;;;;;;;7.28;1.70;;;;;;;;;;4950022;28;20042;-73
2022/07/09 09:33:08;;;;;;;9.95;1.63;;;;;;;;;;4962523;28;20070;-69
2022/07/09 09:35:43;;;;;;;12.35;1.58;;;;;;;;;;4948594;28;20149;-71
2022/07/09 09:38:12;;;;;;;12.05;2.00;;;;;;;;;;4946872;28;20073;-74
2022/07/09 09:40:37;;;;;;;9.57;1.60;;;;;;;;;;4960820;28;20059;-73
2022/07/09 09:43:03;;;;;;;9.38;1.50;;;;;;;;;;4954741;28;20640;-74
2022/07/09 09:45:32;;;;;;;8.65;1.75;;;;;;;;;;4947673;28;20689;-73
2022/07/09 09:47:58;;;;;;;8.07;1.63;;;;;;;;;;4942825;28;20043;-73
2022/07/09 09:50:26;;;;;;;7.13;1.52;;;;;;;;;;4941714;28;20551;-71
2022/07/09 09:52:53;;;;;;;6.28;1.38;;;;;;;;;;4959074;28;24081;-71
2022/07/09 09:55:20;;;;;;;11.68;2.10;;;;;;;;;;4943791;28;20788;-74
2022/07/09 09:57:45;;;;;;;14.05;2.53;;;;;;;;;;4942320;28;20047;-73
2022/07/09 10:00:14;;;;;;;8.02;1.42;;;;;;;;;;4942961;28;20112;-73
2022/07/09 10:02:45;;;;;;;10.30;2.03;;;;;;;;;;4941472;28;20664;-72
2022/07/09 10:05:11;;;;;;;;;;;;;;;;;;4943485;28;20034;-71
2022/07/09 10:07:36;;;;;;;6.53;1.75;;;;;;;;;;4951633;28;19987;-73
2022/07/09 10:10:05;;;;;;;5.68;1.40;;;;;;;;;;4952687;28;20035;-72
2022/07/09 10:12:33;;;;;;;12.85;1.90;;;;;;;;;;4951247;28;20602;-70
2022/07/09 10:14:58;;;;;;;9.25;2.08;;;;;;;;;;4951791;28;20096;-71
2022/07/09 10:17:24;;;;;;;7.53;1.42;;;;;;;;;;4951115;28;20031;-73
2022/07/09 10:20:04;;;;;;;8.75;1.55;;;;;;;;;;4946733;28;21011;-72
2022/07/09 10:22:36;;;;;;;8.02;1.63;;;;;;;;;;4946916;28;20035;-74
2022/07/09 10:25:01;;;;;;;;;;;;;;;;;;4945595;28;21172;-74
2022/07/09 10:27:29;;;;;;;12.13;2.58;;;;;;;;;;4947603;28;19914;-72
2022/07/09 10:29:56;;;;;;;10.85;1.90;;;;;;;;;;4940424;28;20061;-75
2022/07/09 10:32:43;;;;;;;9.77;2.05;;;;;;;;;;4937523;28;20518;-72
2022/07/09 10:35:08;;;;;;;12.82;1.90;;;;;;;;;;4942683;28;20161;-71
2022/07/09 10:37:41;;;;;;;8.45;1.65;;;;;;;;;;4941815;28;20402;-71
2022/07/09 10:40:10;;;;;;;7.65;2.08;;;;;;;;;;4936644;28;20482;-72
2022/07/09 10:42:36;;;;;;;6.13;1.65;;;;;;;;;;4937015;28;20267;-70
2022/07/09 10:45:01;;;;;;;10.65;2.15;;;;;;;;;;4936010;28;20046;-73
2022/07/09 10:47:36;;;;;;;7.85;1.80;;;;;;;;;;4933582;28;20713;-69
2022/07/09 10:50:04;;;;;;;10.18;1.85;;;;;;;;;;4939538;28;20496;-71
2022/07/09 10:52:30;;;;;;;8.32;1.90;;;;;;;;;;4939548;28;20026;-72
2022/07/09 10:54:55;;;;;;;11.88;1.65;;;;;;;;;;4938545;28;20817;-75
2022/07/09 10:57:23;;;;;;;10.73;1.83;;;;;;;;;;4933525;28;20629;-71
2022/07/09 10:59:48;;;;;;;8.68;1.80;;;;;;;;;;4931108;28;20030;-70
2022/07/09 11:02:23;;;;;;;9.57;1.85;;;;;;;;;;4969414;28;20547;-70
2022/07/09 11:04:50;;;;;;;12.63;2.13;;;;;;;;;;4935196;28;20065;-70
2022/07/09 11:07:19;;;;;;;11.15;1.90;;;;;;;;;;4937199;28;20430;-71
2022/07/09 11:09:44;;;;;;;10.90;2.00;;;;;;;;;;4935486;28;20285;-73
2022/07/09 11:12:10;;;;;;;12.10;2.05;;;;;;;;;;4942381;28;20057;-73
2022/07/09 11:14:44;;;;;;;8.02;1.65;;;;;;;;;;4952387;28;20087;-72
2022/07/09 11:17:15;;;;;;;6.78;1.75;;;;;;;;;;4936676;28;20061;-71
2022/07/09 11:19:41;;;;;;;8.05;1.98;;;;;;;;;;4932186;28;20352;-70
2022/07/09 11:22:06;;;;;;;8.80;2.30;;;;;;;;;;4933931;28;20396;-71
2022/07/09 11:24:31;;;;;;;9.40;1.83;;;;;;;;;;4939772;28;20375;-72
2022/07/09 11:27:07;;;;;;;8.07;1.90;;;;;;;;;;4939542;28;20039;-72
2022/07/09 11:29:32;;;;;;;7.93;1.70;;;;;;;;;;4924597;28;20038;-71
2022/07/09 11:31:58;;;;;;;8.13;2.10;;;;;;;;;;4947852;28;20039;-69
2022/07/09 11:34:23;;;;;;;11.00;1.95;;;;;;;;;;4937077;28;20041;-72
2022/07/09 11:36:55;;;;;;;10.27;2.13;;;;;;;;;;4940046;28;20299;-73
2022/07/09 11:39:23;;;;;;;10.68;1.70;;;;;;;;;;4940122;28;20342;-74
2022/07/09 11:41:48;;;;;;;7.38;1.60;;;;;;;;;;4955923;28;20118;-73
2022/07/09 11:44:21;;;;;;;8.85;2.10;;;;;;;;;;4938678;28;20102;-72
2022/07/09 11:47:09;;;;;;;10.73;1.80;;;;;;;;;;4942441;28;20067;-73
2022/07/09 11:49:38;;;;;;;10.95;2.00;;;;;;;;;;4937791;28;20864;-72
2022/07/09 11:52:04;;;;;;;8.10;1.70;;;;;;;;;;4939613;28;20550;-72
2022/07/09 11:54:30;;;;;;;10.07;1.65;;;;;;;;;;4941511;28;20094;-76
2022/07/09 11:56:57;;;;;;;7.25;1.48;;;;;;;;;;4936151;28;20061;-73
2022/07/09 11:59:31;;;;;;;9.40;1.65;;;;;;;;;;4941380;28;20057;-75
2022/07/09 12:01:57;;;;;;;9.38;1.83;;;;;;;;;;4938208;28;20035;-71
2022/07/09 12:04:22;;;;;;;9.13;1.80;;;;;;;;;;4951465;28;20042;-72
2022/07/09 12:06:52;;;;;;;7.75;1.75;;;;;;;;;;4943939;28;20630;-72
2022/07/09 12:09:27;;;;;;;55.85;8.98;;;;;;;;;;4947168;28;20165;-73
2022/07/09 12:11:52;;;;;;;13.68;2.55;;;;;;;;;;4944656;28;20034;-74
2022/07/09 12:14:17;;;;;;;10.52;2.10;;;;;;;;;;4941794;28;20047;-73
2022/07/09 12:16:45;;;;;;;15.27;2.45;;;;;;;;;;4956992;28;20030;-72
2022/07/09 12:19:10;;;;;;;19.95;2.55;;;;;;;;;;4941306;28;20125;-79
2022/07/09 12:21:35;;;;;;;16.95;2.65;;;;;;;;;;4945990;28;20491;-77
2022/07/09 12:24:00;;;;;;;33.88;3.47;;;;;;;;;;4950601;28;20049;-72
2022/07/09 12:26:30;;;;;;;17.85;2.40;;;;;;;;;;4949474;28;20045;-72
2022/07/09 12:28:55;;;;;;;18.95;2.50;;;;;;;;;;4952109;28;21133;-77
2022/07/09 12:31:21;;;;;;;20.45;2.95;;;;;;;;;;4939694;28;20035;-72
2022/07/09 12:33:46;;;;;;;23.92;3.00;;;;;;;;;;4951482;28;20081;-73
2022/07/09 12:36:11;;;;;;;17.25;2.53;;;;;;;;;;4945265;28;20079;-72
2022/07/09 12:38:37;;;;;;;11.23;2.47;;;;;;;;;;4938051;28;20568;-70
2022/07/09 12:41:05;;;;;;;18.10;2.35;;;;;;;;;;4933494;28;20156;-74
2022/07/09 12:43:30;;;;;;;15.10;2.13;;;;;;;;;;4933805;28;20803;-72
2022/07/09 12:45:56;;;;;;;18.17;2.35;;;;;;;;;;4947229;28;22332;-71
2022/07/09 12:48:21;;;;;;;20.52;2.30;;;;;;;;;;4946646;28;20436;-72
2022/07/09 12:50:49;;;;;;;13.07;1.80;;;;;;;;;;4930003;28;20045;-75
2022/07/09 12:53:14;;;;;;;20.05;2.53;;;;;;;;;;4928250;28;20463;-71
2022/07/09 12:55:40;;;;;;;35.38;3.80;;;;;;;;;;4928210;28;20045;-70
2022/07/09 12:58:05;;;;;;;27.88;3.15;;;;;;;;;;4928410;28;20109;-71
2022/07/09 13:00:30;;;;;;;25.70;2.88;;;;;;;;;;4942497;28;20059;-71
2022/07/09 13:02:56;;;;;;;15.27;2.55;;;;;;;;;;4914988;28;20085;-71
2022/07/09 13:05:23;;;;;;;13.43;1.88;;;;;;;;;;4928114;28;20296;-72
2022/07/09 13:07:48;;;;;;;13.93;2.30;;;;;;;;;;4927434;28;20030;-72
2022/07/09 13:10:13;;;;;;;13.65;2.25;;;;;;;;;;4928925;28;20569;-72
2022/07/09 13:12:39;;;;;;;17.50;2.20;;;;;;;;;;4930760;28;20042;-70
2022/07/09 13:15:07;;;;;;;16.10;2.30;;;;;;;;;;4925935;28;20479;-70
2022/07/09 13:17:32;;;;;;;104.18;9.35;;;;;;;;;;4926801;28;20411;-70
2022/07/09 13:19:58;;;;;;;9.20;1.88;;;;;;;;;;4942667;28;20070;-74
2022/07/09 13:22:23;;;;;;;11.38;2.08;;;;;;;;;;4930084;28;20090;-72
2022/07/09 13:24:48;;;;;;;13.23;1.98;;;;;;;;;;4927386;28;20134;-74
2022/07/09 13:27:14;;;;;;;13.95;2.17;;;;;;;;;;4939314;28;20034;-71
2022/07/09 13:29:41;;;;;;;13.98;2.63;;;;;;;;;;4925826;28;20085;-72
2022/07/09 13:32:07;;;;;;;20.42;2.63;;;;;;;;;;4928420;28;20046;-73
2022/07/09 13:34:32;;;;;;;11.40;1.55;;;;;;;;;;4945465;28;20132;-70
2022/07/09 13:36:58;;;;;;;15.77;2.10;;;;;;;;;;4931116;28;20041;-73
2022/07/09 13:39:25;;;;;;;12.10;2.25;;;;;;;;;;4935724;28;20137;-74
2022/07/09 13:41:50;;;;;;;14.25;2.05;;;;;;;;;;4946345;28;20195;-69
2022/07/09 13:44:18;;;;;;;11.48;1.70;;;;;;;;;;4928668;28;20484;-68
2022/07/09 13:46:43;;;;;;;13.02;1.95;;;;;;;;;;4920739;28;20046;-70
2022/07/09 13:49:09;;;;;;;8.73;1.63;;;;;;;;;;4927955;28;20653;-69
2022/07/09 13:51:34;;;;;;;10.57;1.50;;;;;;;;;;4928216;28;20364;-68
2022/07/09 13:53:59;;;;;;;9.00;1.50;;;;;;;;;;4931027;28;20598;-67
2022/07/09 13:56:24;;;;;;;12.15;1.92;;;;;;;;;;4941912;28;20733;-67
2022/07/09 13:58:50;;;;;;;8.35;1.58;;;;;;;;;;4944945;28;20039;-69
2022/07/09 14:01:15;;;;;;;10.20;1.73;;;;;;;;;;4932919;28;20049;-68
2022/07/09 14:03:41;;;;;;;9.85;1.80;;;;;;;;;;4931752;28;20969;-67
2022/07/09 14:06:06;;;;;;;15.65;2.03;;;;;;;;;;4946362;28;20038;-69
2022/07/09 14:08:31;;;;;;;8.65;1.50;;;;;;;;;;4946572;28;20070;-68
2022/07/09 14:11:00;;;;;;;8.85;1.45;;;;;;;;;;4932227;28;20035;-68
2022/07/09 14:13:26;;;;;;;9.57;2.35;;;;;;;;;;4931332;28;20051;-67
2022/07/09 14:15:55;;;;;;;13.68;2.00;;;;;;;;;;4932781;28;20034;-67
2022/07/09 14:18:23;;;;;;;11.68;1.70;;;;;;;;;;4947452;28;20882;-68
2022/07/09 14:20:51;;;;;;;7.78;1.45;;;;;;;;;;4931440;28;23180;-67
2022/07/09 14:23:18;;;;;;;9.80;1.88;;;;;;;;;;4932513;28;20034;-69
2022/07/09 14:25:44;;;;;;;12.60;1.80;;;;;;;;;;4932655;28;20524;-66
2022/07/09 14:28:09;;;;;;;11.20;2.03;;;;;;;;;;4932207;28;20154;-69
2022/07/09 14:30:35;;;;;;;17.88;1.65;;;;;;;;;;4948897;28;20042;-69
2022/07/09 14:33:00;;;;;;;14.93;2.10;;;;;;;;;;4932461;28;20045;-68
2022/07/09 14:35:26;;;;;;;17.15;2.42;;;;;;;;;;4937017;28;20039;-68
2022/07/09 14:37:51;;;;;;;15.30;2.53;;;;;;;;;;4939258;28;20082;-68